Ava, Missouri
Current Conditions -  °F | °C
As of 8:47 PM on Thursday 20 Nov 2014 (Local Time) from KBBG Reporting Station
Few Clouds Few Clouds  
Wind Chill: 36°   Ceiling: Unl
Heat Index: 41°   Visibility: 10mi
Dew Point: 25°   Wind: 8mph
Humidity: 53%   Direction: 120°ESE
Pressure: 30.19"   Gusts: NA
Location:  36.95°N, 92.66°W
Report Text: KBBG 210247Z 12007KT 10SM FEW250 05/M04 A3019
Loading
Personal Weather Stations






























Interactive Weather Map New forecast layout! Learn more

10-Day Weather Forecast

Advertisements
Track Severe Weather on mobile